地図

経路データ

SID SEASON NUMBER BASIN SUBBASIN NAME ISO_TIME NATURE LAT LON WMO_WIND WMO_PRES WMO_AGENCY TRACK_TYPE DIST2LAND LANDFALL IFLAG USA_AGENCY USA_ATCF_ID USA_LAT USA_LON USA_RECORD USA_STATUS USA_WIND USA_PRES USA_SSHS USA_R34_NE USA_R34_SE USA_R34_SW USA_R34_NW USA_R50_NE USA_R50_SE USA_R50_SW USA_R50_NW USA_R64_NE USA_R64_SE USA_R64_SW USA_R64_NW USA_POCI USA_ROCI USA_RMW USA_EYE TOKYO_LAT TOKYO_LON TOKYO_GRADE TOKYO_WIND TOKYO_PRES TOKYO_R50_DIR TOKYO_R50_LONG TOKYO_R50_SHORT TOKYO_R30_DIR TOKYO_R30_LONG TOKYO_R30_SHORT TOKYO_LAND CMA_LAT CMA_LON CMA_CAT CMA_WIND CMA_PRES HKO_LAT HKO_LON HKO_CAT HKO_WIND HKO_PRES NEWDELHI_LAT NEWDELHI_LON NEWDELHI_GRADE NEWDELHI_WIND NEWDELHI_PRES NEWDELHI_CI NEWDELHI_DP NEWDELHI_POCI REUNION_LAT REUNION_LON REUNION_TYPE REUNION_WIND REUNION_PRES REUNION_TNUM REUNION_CI REUNION_RMW REUNION_R34_NE REUNION_R34_SE REUNION_R34_SW REUNION_R34_NW REUNION_R50_NE REUNION_R50_SE REUNION_R50_SW REUNION_R50_NW REUNION_R64_NE REUNION_R64_SE REUNION_R64_SW REUNION_R64_NW BOM_LAT BOM_LON BOM_TYPE BOM_WIND BOM_PRES BOM_TNUM BOM_CI BOM_RMW BOM_R34_NE BOM_R34_SE BOM_R34_SW BOM_R34_NW BOM_R50_NE BOM_R50_SE BOM_R50_SW BOM_R50_NW BOM_R64_NE BOM_R64_SE BOM_R64_SW BOM_R64_NW BOM_ROCI BOM_POCI BOM_EYE BOM_POS_METHOD BOM_PRES_METHOD NADI_LAT NADI_LON NADI_CAT NADI_WIND NADI_PRES WELLINGTON_LAT WELLINGTON_LON WELLINGTON_WIND WELLINGTON_PRES DS824_LAT DS824_LON DS824_STAGE DS824_WIND DS824_PRES TD9636_LAT TD9636_LON TD9636_STAGE TD9636_WIND TD9636_PRES TD9635_LAT TD9635_LON TD9635_WIND TD9635_PRES TD9635_ROCI NEUMANN_LAT NEUMANN_LON NEUMANN_CLASS NEUMANN_WIND NEUMANN_PRES MLC_LAT MLC_LON MLC_CLASS MLC_WIND MLC_PRES USA_GUST BOM_GUST BOM_GUST_PER REUNION_GUST REUNION_GUST_PER USA_SEAHGT USA_SEARAD_NE USA_SEARAD_SE USA_SEARAD_SW USA_SEARAD_NW STORM_SPEED STORM_DIR
1933305N09135 1933 72 WP MM NOT_NAMED 1933-11-01 10:00:00 NR 8.70000 134.700 main 899 846 __________O___ -1 8.70000 134.700 7 16 280
1933305N09135 1933 72 WP MM NOT_NAMED 1933-11-01 12:00:00 NR 8.79018 134.179 main 846 760 __________P___ -1 8.79018 134.179 7 16 280
1933305N09135 1933 72 WP MM NOT_NAMED 1933-11-01 15:00:00 NR 8.92849 133.399 main 760 678 __________P___ -1 8.92849 133.399 7 16 281
1933305N09135 1933 72 WP MM NOT_NAMED 1933-11-01 18:00:00 NR 9.07635 132.623 main 678 607 __________P___ -1 9.07635 132.623 7 16 282
1933305N09135 1933 72 WP MM NOT_NAMED 1933-11-01 21:00:00 NR 9.24050 131.854 main 607 578 __________P___ -1 9.24050 131.854 7 16 282
1933305N09135 1933 72 WP MM NOT_NAMED 1933-11-01 22:00:00 NR 9.30000 131.600 main 578 530 __________O___ -1 9.30000 131.600 3 15 284
1933305N09135 1933 72 WP MM NOT_NAMED 1933-11-02 00:00:00 NR 9.42675 131.094 main 530 448 __________P___ -1 9.42675 131.094 3 15 285
1933305N09135 1933 72 WP MM NOT_NAMED 1933-11-02 03:00:00 NR 9.62991 130.342 main 448 379 __________P___ -1 9.62991 130.342 3 15 286
1933305N09135 1933 72 WP MM NOT_NAMED 1933-11-02 06:00:00 NR 9.83761 129.595 main 379 299 __________P___ -1 9.83761 129.595 3 15 285
1933305N09135 1933 72 WP MM NOT_NAMED 1933-11-02 09:00:00 NR 10.0374 128.849 main 299 281 __________P___ -1 10.0374 128.849 3 15 285
1933305N09135 1933 72 WP MM NOT_NAMED 1933-11-02 10:00:00 NR 10.1000 128.600 main 281 236 __________O___ -1 10.1000 128.600 4 15 282
1933305N09135 1933 72 WP MM NOT_NAMED 1933-11-02 12:00:00 NR 10.2005 128.100 main 236 168 __________P___ -1 10.2005 128.100 4 15 281
1933305N09135 1933 72 WP MM NOT_NAMED 1933-11-02 15:00:00 NR 10.3388 127.349 main 168 103 __________P___ -1 10.3388 127.349 4 15 281
1933305N09135 1933 72 WP MM NOT_NAMED 1933-11-02 18:00:00 NR 10.4786 126.599 main 103 44 __________P___ -1 10.4786 126.599 4 15 281
1933305N09135 1933 72 WP MM NOT_NAMED 1933-11-02 21:00:00 NR 10.6388 125.850 main 44 33 __________P___ -1 10.6388 125.850 4 15 283
1933305N09135 1933 72 WP MM NOT_NAMED 1933-11-02 22:00:00 NR 10.7000 125.600 main 40 10 __________O___ -1 10.7000 125.600 4 15 286
1933305N09135 1933 72 WP MM NOT_NAMED 1933-11-03 00:00:00 NR 10.8459 125.108 main 10 0 __________P___ -1 10.8459 125.108 4 15 288
1933305N09135 1933 72 WP MM NOT_NAMED 1933-11-03 03:00:00 NR 11.0904 124.370 main 0 0 __________P___ -1 11.0904 124.370 4 15 289
1933305N09135 1933 72 WP MM NOT_NAMED 1933-11-03 06:00:00 NR 11.3518 123.623 main 39 0 __________P___ -1 11.3518 123.623 4 16 290
1933305N09135 1933 72 WP MM NOT_NAMED 1933-11-03 09:00:00 NR 11.6147 122.860 main 11 11 __________P___ -1 11.6147 122.860 4 16 289
1933305N09135 1933 72 WP MM NOT_NAMED 1933-11-03 10:00:00 NR 11.7000 122.600 main 15 0 __________O___ -1 11.7000 122.600 4 16 288
1933305N09135 1933 72 WP MM NOT_NAMED 1933-11-03 12:00:00 NR 11.8683 122.078 main 11 11 __________P___ -1 11.8683 122.078 4 16 288
1933305N09135 1933 72 WP MM NOT_NAMED 1933-11-03 15:00:00 NR 12.1150 121.275 main 15 0 __________P___ -1 12.1150 121.275 4 17 287
1933305N09135 1933 72 WP MM NOT_NAMED 1933-11-03 18:00:00 NR 12.3438 120.448 main 62 54 __________P___ -1 12.3438 120.448 4 17 285
1933305N09135 1933 72 WP MM NOT_NAMED 1933-11-03 21:00:00 NR 12.5426 119.592 main 125 124 __________P___ -1 12.5426 119.592 4 17 283
1933305N09135 1933 72 WP MM NOT_NAMED 1933-11-03 22:00:00 NR 12.6000 119.300 main 140 140 __________O___ -1 12.6000 119.300 4 18 278
1933305N09135 1933 72 WP MM NOT_NAMED 1933-11-04 00:00:00 NR 12.6743 118.687 main 179 184 __________P___ -1 12.6743 118.687 4 18 276
1933305N09135 1933 72 WP MM NOT_NAMED 1933-11-04 03:00:00 NR 12.7539 117.742 main 257 257 __________P___ -1 12.7539 117.742 4 19 275
1933305N09135 1933 72 WP MM NOT_NAMED 1933-11-04 06:00:00 NR 12.8309 116.798 main 334 344 __________P___ -1 12.8309 116.798 4 18 276
1933305N09135 1933 72 WP MM NOT_NAMED 1933-11-04 09:00:00 NR 12.9461 115.889 main 425 440 __________P___ -1 12.9461 115.889 4 18 278
1933305N09135 1933 72 WP MM NOT_NAMED 1933-11-04 10:00:00 NR 13.0000 115.600 main 459 459 __________O___ -1 13.0000 115.600 4 18 284
1933305N09135 1933 72 WP MM NOT_NAMED 1933-11-04 12:00:00 NR 13.1567 115.014 main 528 512 __________P___ -1 13.1567 115.014 4 17 288
1933305N09135 1933 72 WP MM NOT_NAMED 1933-11-04 15:00:00 NR 13.4428 114.177 main 512 434 __________P___ -1 13.4428 114.177 4 17 291
1933305N09135 1933 72 WP MM NOT_NAMED 1933-11-04 18:00:00 NR 13.7645 113.421 main 434 378 __________P___ -1 13.7645 113.421 4 15 296
1933305N09135 1933 72 WP MM NOT_NAMED 1933-11-04 21:00:00 NR 14.0936 112.781 main 378 357 __________P___ -1 14.0936 112.781 4 14 299
1933305N09135 1933 72 WP MM NOT_NAMED 1933-11-04 22:00:00 NR 14.2000 112.600 main 357 328 __________O___ -1 14.2000 112.600 4 11 301
1933305N09135 1933 72 WP MM NOT_NAMED 1933-11-05 00:00:00 NR 14.3828 112.286 main 328 291 __________P___ -1 14.3828 112.286 4 10 305
1933305N09135 1933 72 WP MM NOT_NAMED 1933-11-05 03:00:00 NR 14.6514 111.929 main 294 277 __________P___ -1 14.6514 111.929 4 8 312
1933305N09135 1933 72 WP MM NOT_NAMED 1933-11-05 06:00:00 NR 14.9217 111.670 main 280 261 __________P___ -1 14.9217 111.670 4 7 321
1933305N09135 1933 72 WP MM NOT_NAMED 1933-11-05 09:00:00 NR 15.2026 111.464 main 263 253 __________P___ -1 15.2026 111.464 4 7 326
1933305N09135 1933 72 WP MM NOT_NAMED 1933-11-05 10:00:00 NR 15.3000 111.400 main 256 242 __________O___ -1 15.3000 111.400 4 7 322
1933305N09135 1933 72 WP MM NOT_NAMED 1933-11-05 12:00:00 NR 15.4921 111.228 main 242 232 __________P___ -1 15.4921 111.228 4 8 322
1933305N09135 1933 72 WP MM NOT_NAMED 1933-11-05 15:00:00 NR 15.7926 110.995 main 234 222 __________P___ -1 15.7926 110.995 4 8 326
1933305N09135 1933 72 WP MM NOT_NAMED 1933-11-05 18:00:00 NR 16.1163 110.798 main 227 212 __________P___ -1 16.1163 110.798 4 8 333
1933305N09135 1933 72 WP MM NOT_NAMED 1933-11-05 21:00:00 NR 16.4724 110.642 main 212 202 __________P___ -1 16.4724 110.642 4 8 339
1933305N09135 1933 72 WP MM NOT_NAMED 1933-11-05 22:00:00 NR 16.6000 110.600 main 202 168 __________O___ -1 16.6000 110.600 4 9 342
1933305N09135 1933 72 WP MM NOT_NAMED 1933-11-06 00:00:00 NR 16.8792 110.504 main 168 125 __________P___ -1 16.8792 110.504 4 9 345
1933305N09135 1933 72 WP MM NOT_NAMED 1933-11-06 03:00:00 NR 17.3298 110.397 main 125 74 __________P___ -1 17.3298 110.397 4 9 351
1933305N09135 1933 72 WP MM NOT_NAMED 1933-11-06 06:00:00 NR 17.7963 110.348 main 74 38 __________P___ -1 17.7963 110.348 4 9 0
1933305N09135 1933 72 WP MM NOT_NAMED 1933-11-06 09:00:00 NR 18.2538 110.373 main 38 30 __________P___ -1 18.2538 110.373 4 9 6
1933305N09135 1933 72 WP MM NOT_NAMED 1933-11-06 10:00:00 NR 18.4000 110.400 main 30 10 __________O___ -1 18.4000 110.400 4 9 14
1933305N09135 1933 72 WP MM NOT_NAMED 1933-11-06 12:00:00 NR 18.6791 110.485 main 10 0 __________P___ -1 18.6791 110.485 4 9 21
1933305N09135 1933 72 WP MM NOT_NAMED 1933-11-06 15:00:00 NR 19.0691 110.676 main 15 11 __________P___ -1 19.0691 110.676 4 9 29
1933305N09135 1933 72 WP MM NOT_NAMED 1933-11-06 18:00:00 NR 19.4341 110.923 main 11 0 __________P___ -1 19.4341 110.923 4 9 35
1933305N09135 1933 72 WP MM NOT_NAMED 1933-11-06 21:00:00 NR 19.7846 111.203 main 30 30 __________P___ -1 19.7846 111.203 4 9 37
1933305N09135 1933 72 WP MM NOT_NAMED 1933-11-06 22:00:00 NR 19.9000 111.300 main 41 __________O___ -1 19.9000 111.300 7 9 39

デジタル台風データ・検索

IBTrACS Databaseについて

本データベースは、米国NOAAが公開する1842年以降の世界の熱帯低気圧のベストトラックデータアーカイブInternational Best Track Archive for Climate Stewardship (IBTrACS)を、ウェブで閲覧しやすい形式に変換したものです。

最終更新日:2021-10-08